createdAt,value
2023-05-05T00:01:04.382Z,70.73
2023-05-05T00:06:28.785Z,70.67
2023-05-05T00:08:56.985Z,70.57
2023-05-05T00:11:26.070Z,70.50
2023-05-05T00:13:54.251Z,70.51
2023-05-05T00:16:23.506Z,70.56
2023-05-05T00:18:51.706Z,70.66
2023-05-05T00:21:19.807Z,70.54
2023-05-05T00:23:47.906Z,70.50
2023-05-05T00:26:16.017Z,70.39
2023-05-05T00:28:44.566Z,70.22
2023-05-05T00:31:15.761Z,70.09
2023-05-05T00:33:44.001Z,69.88
2023-05-05T00:36:12.280Z,69.76
2023-05-05T00:38:40.385Z,69.67
2023-05-05T00:41:08.571Z,69.55
2023-05-05T00:43:36.877Z,69.64
2023-05-05T00:46:27.463Z,69.78
2023-05-05T00:48:56.461Z,69.60
2023-05-05T00:51:25.711Z,69.60
2023-05-05T00:53:54.634Z,69.51
2023-05-05T00:56:24.739Z,69.46
2023-05-05T00:58:53.439Z,69.54
2023-05-05T01:01:21.585Z,69.44
2023-05-05T01:03:49.846Z,69.48
2023-05-05T01:06:38.461Z,69.44
2023-05-05T01:09:42.111Z,69.50
2023-05-05T01:12:58.423Z,69.53
2023-05-05T01:15:48.780Z,69.50
2023-05-05T01:18:20.010Z,69.52
2023-05-05T01:21:09.177Z,69.62
2023-05-05T01:24:34.379Z,69.52
2023-05-05T01:27:30.582Z,69.61
2023-05-05T01:30:42.494Z,69.60
2023-05-05T01:33:15.513Z,69.45
2023-05-05T01:35:50.294Z,69.46
2023-05-05T01:38:23.132Z,69.35
2023-05-05T01:41:22.110Z,69.63
2023-05-05T01:43:52.836Z,69.83
2023-05-05T01:46:23.726Z,69.64
2023-05-05T01:48:53.825Z,69.50
2023-05-05T01:51:24.023Z,69.74
2023-05-05T01:53:54.583Z,69.71
2023-05-05T01:56:24.635Z,69.93
2023-05-05T01:58:54.684Z,69.95
2023-05-05T02:01:25.952Z,70.09
2023-05-05T02:03:57.449Z,69.96
2023-05-05T02:06:29.815Z,69.95
2023-05-05T02:08:58.983Z,70.07
2023-05-05T02:11:28.895Z,70.14
2023-05-05T02:13:59.858Z,70.26
2023-05-05T02:16:31.155Z,70.49
2023-05-05T02:19:05.026Z,70.59
2023-05-05T02:21:34.519Z,70.33
2023-05-05T02:24:03.579Z,70.43
2023-05-05T02:26:35.984Z,70.57
2023-05-05T02:29:04.731Z,70.63
2023-05-05T02:31:38.598Z,70.87
2023-05-05T02:34:08.916Z,70.98
2023-05-05T02:36:41.278Z,70.91
2023-05-05T02:39:24.936Z,71.01
2023-05-05T02:41:55.458Z,71.02
2023-05-05T02:44:29.122Z,71.03
2023-05-05T02:46:58.884Z,71.21
2023-05-05T02:49:27.653Z,71.31
2023-05-05T02:51:59.685Z,71.47
2023-05-05T02:54:32.334Z,71.59
2023-05-05T02:57:01.559Z,71.73
2023-05-05T03:00:07.091Z,71.84
2023-05-05T03:02:47.336Z,71.67
2023-05-05T03:05:28.365Z,71.76
2023-05-05T03:08:10.853Z,71.77
2023-05-05T03:10:52.871Z,71.89
2023-05-05T03:13:26.385Z,71.98
2023-05-05T03:15:56.304Z,71.88
2023-05-05T03:18:28.939Z,72.13
2023-05-05T03:21:08.704Z,72.38
2023-05-05T03:23:39.034Z,72.53
2023-05-05T03:26:10.545Z,72.52
2023-05-05T03:28:42.017Z,72.58
2023-05-05T03:31:20.153Z,72.55
2023-05-05T03:33:51.599Z,72.36
2023-05-05T03:36:21.101Z,72.46
2023-05-05T03:38:49.393Z,72.43
2023-05-05T03:41:18.214Z,72.28
2023-05-05T03:43:46.619Z,72.27
2023-05-05T03:46:16.358Z,72.26
2023-05-05T03:48:44.857Z,72.39
2023-05-05T03:51:13.634Z,72.28
2023-05-05T03:53:42.317Z,72.44
2023-05-05T03:56:10.786Z,72.45
2023-05-05T03:58:38.899Z,72.26
2023-05-05T04:01:08.481Z,72.20
2023-05-05T04:03:36.821Z,72.16
2023-05-05T04:06:06.055Z,71.97
2023-05-05T04:08:34.681Z,71.83
2023-05-05T04:11:02.819Z,71.84
2023-05-05T04:13:31.541Z,71.65
2023-05-05T04:16:00.170Z,71.69
2023-05-05T04:18:28.441Z,71.51
2023-05-05T04:20:56.727Z,71.55
2023-05-05T04:23:24.979Z,71.35
2023-05-05T04:25:53.196Z,71.43
2023-05-05T04:28:22.085Z,71.32
2023-05-05T04:30:50.898Z,71.46
2023-05-05T04:33:20.069Z,71.14
2023-05-05T04:35:48.922Z,71.05
2023-05-05T04:38:17.222Z,70.99
2023-05-05T04:40:46.262Z,70.73
2023-05-05T04:43:14.628Z,70.87
2023-05-05T04:45:53.751Z,70.73
2023-05-05T04:48:22.967Z,70.32
2023-05-05T04:50:51.487Z,70.45
2023-05-05T04:53:19.783Z,70.37
2023-05-05T04:55:48.250Z,70.45
2023-05-05T04:58:17.000Z,70.40
2023-05-05T05:00:45.423Z,70.27
2023-05-05T05:03:13.738Z,70.26
2023-05-05T05:05:42.036Z,70.21
2023-05-05T05:08:10.203Z,69.82
2023-05-05T05:10:38.350Z,69.73
2023-05-05T05:13:06.563Z,69.31
2023-05-05T05:15:35.107Z,69.06
2023-05-05T05:18:03.723Z,68.49
2023-05-05T05:20:32.421Z,67.61
2023-05-05T05:23:04.568Z,67.45
2023-05-05T05:25:34.841Z,67.20
2023-05-05T05:28:10.098Z,67.19
2023-05-05T05:30:43.854Z,66.97
2023-05-05T05:33:12.375Z,66.74
2023-05-05T05:35:41.129Z,66.66
2023-05-05T05:38:09.518Z,66.25
2023-05-05T05:40:38.095Z,65.76
2023-05-05T05:43:06.518Z,65.67
2023-05-05T05:45:34.722Z,65.37
2023-05-05T05:48:03.817Z,64.98
2023-05-05T05:50:32.451Z,65.03
2023-05-05T05:53:00.775Z,64.82
2023-05-05T05:55:29.229Z,64.76
2023-05-05T05:57:57.792Z,64.67
2023-05-05T06:00:26.332Z,64.91
2023-05-05T06:02:57.862Z,65.10
2023-05-05T06:05:28.030Z,65.24
2023-05-05T06:07:56.222Z,65.09
2023-05-05T06:10:28.224Z,64.86
2023-05-05T06:13:03.813Z,64.84
2023-05-05T06:15:32.727Z,65.08
2023-05-05T06:18:01.679Z,64.66
2023-05-05T06:20:29.990Z,64.81
2023-05-05T06:22:58.089Z,64.69
2023-05-05T06:25:26.931Z,64.62
2023-05-05T06:27:55.087Z,64.35
2023-05-05T06:30:23.201Z,64.27
2023-05-05T06:32:51.354Z,63.90
2023-05-05T06:35:19.560Z,63.86
2023-05-05T06:37:47.718Z,63.83
2023-05-05T06:40:17.357Z,63.60
2023-05-05T06:42:46.138Z,63.53
2023-05-05T06:45:18.302Z,62.92
2023-05-05T06:47:46.446Z,62.89
2023-05-05T06:50:14.835Z,62.85
2023-05-05T06:52:42.967Z,62.66
2023-05-05T06:55:11.209Z,62.31
2023-05-05T06:57:39.333Z,62.49
2023-05-05T07:00:11.383Z,62.59
2023-05-05T07:02:39.943Z,62.51
2023-05-05T07:05:08.599Z,62.38
2023-05-05T07:07:37.575Z,62.38
2023-05-05T07:10:07.678Z,62.14
2023-05-05T07:12:36.175Z,62.06
2023-05-05T07:15:15.369Z,61.94
2023-05-05T07:17:52.219Z,62.06
2023-05-05T07:20:20.527Z,62.03
2023-05-05T07:22:48.710Z,61.97
2023-05-05T07:25:16.973Z,62.00
2023-05-05T07:27:47.777Z,61.93
2023-05-05T07:30:18.706Z,61.83
2023-05-05T07:32:47.821Z,61.75
2023-05-05T07:35:16.104Z,61.87
2023-05-05T07:37:46.133Z,61.84
2023-05-05T07:40:14.470Z,61.60
2023-05-05T07:42:42.557Z,61.80
2023-05-05T07:45:11.373Z,61.62
2023-05-05T07:47:40.522Z,61.55
2023-05-05T07:50:09.465Z,61.35
2023-05-05T07:52:48.245Z,61.15
2023-05-05T07:55:20.203Z,60.80
2023-05-05T07:57:49.650Z,60.77
2023-05-05T08:00:19.568Z,60.81
2023-05-05T08:02:48.754Z,60.26
2023-05-05T08:05:17.279Z,59.70
2023-05-05T08:07:45.445Z,59.86
2023-05-05T08:10:13.675Z,59.81
2023-05-05T08:12:42.139Z,59.57
2023-05-05T08:15:11.169Z,59.54
2023-05-05T08:17:51.692Z,59.57
2023-05-05T08:20:21.126Z,59.37
2023-05-05T08:22:49.947Z,58.89
2023-05-05T08:25:18.110Z,58.72
2023-05-05T08:27:46.360Z,58.32
2023-05-05T08:30:16.680Z,58.29
2023-05-05T08:32:44.997Z,58.33
2023-05-05T08:35:13.492Z,57.92
2023-05-05T08:37:41.995Z,57.39
2023-05-05T08:40:14.356Z,57.40
2023-05-05T08:42:44.591Z,57.06
2023-05-05T08:45:13.065Z,56.76
2023-05-05T08:47:43.305Z,57.01
2023-05-05T08:50:12.509Z,56.90
2023-05-05T08:52:44.817Z,57.02
2023-05-05T08:55:25.543Z,57.14
2023-05-05T08:57:58.390Z,56.72
2023-05-05T09:00:28.047Z,56.67
2023-05-05T09:02:58.864Z,56.22
2023-05-05T09:05:28.550Z,56.34
2023-05-05T09:07:56.736Z,56.00
2023-05-05T09:10:29.704Z,56.09
2023-05-05T09:12:57.899Z,55.83
2023-05-05T09:15:28.414Z,55.87
2023-05-05T09:18:01.681Z,55.48
2023-05-05T09:20:38.473Z,55.18
2023-05-05T09:23:18.801Z,54.73
2023-05-05T09:26:02.600Z,54.38
2023-05-05T09:28:31.564Z,54.37
2023-05-05T09:31:16.191Z,54.35
2023-05-05T09:33:44.645Z,53.59
2023-05-05T09:36:12.780Z,53.27
2023-05-05T09:38:41.182Z,53.86
2023-05-05T09:41:09.535Z,54.18
2023-05-05T09:43:56.047Z,54.12
2023-05-05T09:46:24.343Z,53.89
2023-05-05T09:48:52.672Z,53.83
2023-05-05T09:51:29.845Z,53.88
2023-05-05T09:53:58.091Z,53.70
2023-05-05T09:56:43.082Z,52.73
2023-05-05T09:59:11.955Z,52.56
2023-05-05T10:01:42.480Z,52.83
2023-05-05T10:04:31.586Z,52.84
2023-05-05T10:06:59.726Z,51.68
2023-05-05T10:09:28.098Z,50.93
2023-05-05T10:11:59.218Z,51.09
2023-05-05T10:14:31.750Z,51.07
2023-05-05T10:17:01.766Z,51.02
2023-05-05T10:19:35.112Z,50.84
2023-05-05T10:22:08.421Z,50.55
2023-05-05T10:24:50.969Z,50.31
2023-05-05T10:27:24.754Z,50.34
2023-05-05T10:30:04.739Z,50.46
2023-05-05T10:33:00.450Z,50.37
2023-05-05T10:35:41.758Z,50.30
2023-05-05T10:38:12.760Z,49.91
2023-05-05T10:40:48.952Z,49.82
2023-05-05T10:43:17.910Z,49.78
2023-05-05T10:45:46.507Z,49.80
2023-05-05T10:48:25.580Z,49.58
2023-05-05T10:50:59.810Z,49.18
2023-05-05T10:53:41.723Z,49.04
2023-05-05T10:56:26.675Z,49.07
2023-05-05T10:59:00.232Z,49.10
2023-05-05T11:01:34.586Z,48.73
2023-05-05T11:04:23.810Z,48.81
2023-05-05T11:07:13.776Z,48.99
2023-05-05T11:09:57.814Z,48.75
2023-05-05T11:12:26.010Z,48.12
2023-05-05T11:15:31.401Z,47.87
2023-05-05T11:18:08.171Z,47.75
2023-05-05T11:20:40.145Z,46.98
2023-05-05T11:23:08.306Z,47.26
2023-05-05T11:25:36.900Z,47.02
2023-05-05T11:28:12.931Z,47.22
2023-05-05T11:30:57.290Z,46.85
2023-05-05T11:33:31.578Z,46.76
2023-05-05T11:36:05.830Z,46.81
2023-05-05T11:38:59.773Z,46.65
2023-05-05T11:41:31.184Z,46.92
2023-05-05T11:44:12.701Z,47.06
2023-05-05T11:47:04.173Z,47.24
2023-05-05T11:49:41.207Z,46.97
2023-05-05T11:52:10.825Z,47.17
2023-05-05T11:54:48.088Z,47.04
2023-05-05T11:57:20.955Z,46.55
2023-05-05T12:00:02.597Z,46.18
2023-05-05T12:02:32.591Z,46.04
2023-05-05T12:05:01.240Z,46.07
2023-05-05T12:07:32.065Z,45.85
2023-05-05T12:10:00.965Z,45.48
2023-05-05T12:12:41.082Z,45.54
2023-05-05T12:15:09.735Z,45.62
2023-05-05T12:17:42.408Z,45.27
2023-05-05T12:20:12.319Z,45.65
2023-05-05T12:22:41.294Z,45.12
2023-05-05T12:25:10.050Z,45.16
2023-05-05T12:27:38.856Z,45.41
2023-05-05T12:30:14.186Z,44.86
2023-05-05T12:32:44.814Z,45.03
2023-05-05T12:35:13.879Z,44.90
2023-05-05T12:37:43.079Z,44.55
2023-05-05T12:40:47.919Z,44.53
2023-05-05T12:43:35.306Z,44.43
2023-05-05T12:46:13.087Z,43.84
2023-05-05T12:48:48.119Z,43.50
2023-05-05T12:51:23.159Z,43.64
2023-05-05T12:54:12.641Z,43.67
2023-05-05T12:56:46.664Z,43.58
2023-05-05T12:59:20.966Z,43.37
2023-05-05T13:01:54.377Z,44.01
2023-05-05T13:04:24.736Z,44.19
2023-05-05T13:07:16.774Z,43.84
2023-05-05T13:09:47.271Z,43.74
2023-05-05T13:12:19.149Z,43.83
2023-05-05T13:14:47.277Z,43.69
2023-05-05T13:17:15.432Z,43.80
2023-05-05T13:19:46.373Z,43.70
2023-05-05T13:22:14.808Z,43.59
2023-05-05T13:24:51.533Z,43.40
2023-05-05T13:27:21.341Z,43.56
2023-05-05T13:29:49.530Z,43.49
2023-05-05T13:32:17.757Z,43.44
2023-05-05T13:34:45.868Z,43.37
2023-05-05T13:37:14.118Z,43.47
2023-05-05T13:39:42.147Z,43.43
2023-05-05T13:42:10.281Z,43.15
2023-05-05T13:44:38.450Z,43.25
2023-05-05T13:47:06.574Z,42.98
2023-05-05T13:49:36.047Z,42.95
2023-05-05T13:52:04.239Z,43.01
2023-05-05T13:54:32.314Z,43.24
2023-05-05T13:57:00.368Z,43.30
2023-05-05T13:59:28.486Z,43.20
2023-05-05T14:01:56.480Z,43.36
2023-05-05T14:04:24.864Z,43.13
2023-05-05T14:06:53.427Z,42.92
2023-05-05T14:09:21.710Z,43.04
2023-05-05T14:11:49.821Z,42.44
2023-05-05T14:14:18.026Z,42.53
2023-05-05T14:16:48.608Z,42.89
2023-05-05T14:19:18.209Z,43.06
2023-05-05T14:21:46.386Z,43.23
2023-05-05T14:24:14.439Z,43.17
2023-05-05T14:27:00.222Z,42.87
2023-05-05T14:29:28.341Z,43.01
2023-05-05T14:31:56.433Z,42.84
2023-05-05T14:34:24.675Z,42.78
2023-05-05T14:36:52.761Z,42.72
2023-05-05T14:39:20.970Z,42.57
2023-05-05T14:41:49.054Z,42.52
2023-05-05T14:44:17.074Z,42.22
2023-05-05T14:46:46.344Z,42.12
2023-05-05T14:49:14.969Z,42.28
2023-05-05T14:51:42.990Z,42.44
2023-05-05T14:54:24.087Z,42.55
2023-05-05T14:56:56.632Z,42.37
2023-05-05T14:59:24.967Z,42.29
2023-05-05T15:01:53.494Z,42.08
2023-05-05T15:04:21.561Z,41.97
2023-05-05T15:06:49.733Z,42.08
2023-05-05T15:09:19.181Z,42.16
2023-05-05T15:11:47.264Z,42.26
2023-05-05T15:14:15.302Z,42.39
2023-05-05T15:16:43.305Z,42.28
2023-05-05T15:19:11.370Z,42.26
2023-05-05T15:21:39.437Z,42.27
2023-05-05T15:24:07.812Z,42.24
2023-05-05T15:26:35.920Z,42.71
2023-05-05T15:29:03.950Z,43.53
2023-05-05T15:31:32.096Z,43.49
2023-05-05T15:34:00.357Z,43.77
2023-05-05T15:36:28.667Z,44.30
2023-05-05T15:38:56.774Z,44.17
2023-05-05T15:41:29.269Z,43.90
2023-05-05T15:43:58.163Z,44.47
2023-05-05T15:46:26.372Z,44.42
2023-05-05T15:48:54.521Z,47.42
2023-05-05T15:51:22.804Z,49.41
2023-05-05T15:53:52.395Z,51.43
2023-05-05T15:56:20.522Z,51.34
2023-05-05T15:58:48.729Z,49.61
2023-05-05T16:01:16.886Z,49.10
2023-05-05T16:03:45.028Z,50.99
2023-05-05T16:06:13.206Z,54.05
2023-05-05T16:08:41.380Z,55.59
2023-05-05T16:11:09.525Z,55.40
2023-05-05T16:13:39.282Z,55.01
2023-05-05T16:16:07.545Z,55.80
2023-05-05T16:18:35.658Z,56.17
2023-05-05T16:21:04.010Z,56.88
2023-05-05T16:23:32.197Z,56.57
2023-05-05T16:26:00.488Z,57.12
2023-05-05T16:28:28.621Z,57.57
2023-05-05T16:30:56.835Z,57.72
2023-05-05T16:33:25.064Z,58.71
2023-05-05T16:35:53.512Z,60.39
2023-05-05T16:38:21.741Z,59.34
2023-05-05T16:40:49.891Z,58.52
2023-05-05T16:43:19.645Z,57.21
2023-05-05T16:45:47.902Z,56.14
2023-05-05T16:48:17.745Z,56.10
2023-05-05T16:50:45.981Z,56.83
2023-05-05T16:53:14.104Z,57.25
2023-05-05T16:55:42.281Z,57.11
2023-05-05T16:58:11.544Z,57.72
2023-05-05T17:00:39.845Z,57.72
2023-05-05T17:03:07.941Z,57.85
2023-05-05T17:05:36.069Z,58.03
2023-05-05T17:08:04.643Z,58.54
2023-05-05T17:10:32.773Z,58.83
2023-05-05T17:13:00.924Z,58.03
2023-05-05T17:15:29.095Z,57.85
2023-05-05T17:17:57.271Z,57.48
2023-05-05T17:20:25.582Z,57.45
2023-05-05T17:22:54.102Z,57.67
2023-05-05T17:25:23.318Z,57.22
2023-05-05T17:27:52.648Z,57.39
2023-05-05T17:30:21.267Z,57.72
2023-05-05T17:32:49.450Z,57.68
2023-05-05T17:35:17.999Z,58.16
2023-05-05T17:37:46.291Z,58.10
2023-05-05T17:40:14.483Z,58.78
2023-05-05T17:42:42.619Z,59.18
2023-05-05T17:45:11.593Z,58.33
2023-05-05T17:47:40.385Z,57.58
2023-05-05T17:50:11.003Z,57.48
2023-05-05T17:52:40.533Z,57.39
2023-05-05T17:55:09.679Z,56.99
2023-05-05T17:57:38.289Z,56.67
2023-05-05T18:00:07.428Z,56.49
2023-05-05T18:02:42.206Z,56.38
2023-05-05T18:05:10.883Z,56.20
2023-05-05T18:07:39.698Z,55.86
2023-05-05T18:10:10.557Z,55.49
2023-05-05T18:12:38.857Z,55.40
2023-05-05T18:15:08.831Z,55.36
2023-05-05T18:17:37.456Z,55.23
2023-05-05T18:20:07.287Z,55.07
2023-05-05T18:22:35.851Z,55.11
2023-05-05T18:25:05.946Z,55.14
2023-05-05T18:27:36.134Z,55.27
2023-05-05T18:30:05.289Z,55.43
2023-05-05T18:32:33.702Z,55.67
2023-05-05T18:35:01.953Z,55.83
2023-05-05T18:37:30.099Z,56.07
2023-05-05T18:39:58.190Z,56.07
2023-05-05T18:42:26.897Z,56.30
2023-05-05T18:44:55.030Z,56.35
2023-05-05T18:47:23.650Z,56.39
2023-05-05T18:49:51.819Z,56.40
2023-05-05T18:52:20.039Z,56.39
2023-05-05T18:54:48.187Z,56.53
2023-05-05T18:57:16.333Z,56.73
2023-05-05T18:59:44.522Z,56.87
2023-05-05T19:02:12.742Z,56.78
2023-05-05T19:04:41.480Z,57.00
2023-05-05T19:07:10.107Z,57.07
2023-05-05T19:09:38.318Z,57.32
2023-05-05T19:12:06.650Z,57.38
2023-05-05T19:14:34.792Z,57.27
2023-05-05T19:17:03.184Z,57.34
2023-05-05T19:19:31.503Z,57.52
2023-05-05T19:22:01.338Z,57.59
2023-05-05T19:24:31.918Z,57.49
2023-05-05T19:27:00.123Z,57.59
2023-05-05T19:29:29.013Z,57.75
2023-05-05T19:31:57.299Z,57.68
2023-05-05T19:34:26.028Z,57.88
2023-05-05T19:36:54.185Z,57.94
2023-05-05T19:39:22.408Z,58.00
2023-05-05T19:41:50.611Z,58.02
2023-05-05T19:44:18.931Z,58.08
2023-05-05T19:46:47.093Z,58.18
2023-05-05T19:49:15.253Z,58.29
2023-05-05T19:51:43.861Z,58.48
2023-05-05T19:54:11.955Z,58.50
2023-05-05T19:56:40.479Z,58.54
2023-05-05T19:59:09.344Z,58.61
2023-05-05T20:01:37.670Z,58.81
2023-05-05T20:04:05.977Z,58.88
2023-05-05T20:06:34.203Z,58.91
2023-05-05T20:09:02.539Z,59.07
2023-05-05T20:11:31.220Z,59.23
2023-05-05T20:14:00.044Z,59.26
2023-05-05T20:16:28.360Z,59.33
2023-05-05T20:18:56.610Z,59.38
2023-05-05T20:21:24.872Z,59.55
2023-05-05T20:23:54.601Z,59.54
2023-05-05T20:26:24.474Z,59.64
2023-05-05T20:28:53.060Z,59.63
2023-05-05T20:31:21.301Z,59.74
2023-05-05T20:33:49.557Z,59.98
2023-05-05T20:36:18.635Z,60.04
2023-05-05T20:38:46.948Z,60.10
2023-05-05T20:41:15.161Z,60.19
2023-05-05T20:43:43.293Z,60.33
2023-05-05T20:46:13.088Z,60.45
2023-05-05T20:48:42.893Z,60.48
2023-05-05T20:51:11.417Z,60.54
2023-05-05T20:53:39.955Z,60.62
2023-05-05T20:56:08.887Z,60.61
2023-05-05T20:58:37.494Z,60.64
2023-05-05T21:01:05.758Z,60.75
2023-05-05T21:03:33.941Z,60.99
2023-05-05T21:06:02.117Z,60.96
2023-05-05T21:08:30.712Z,61.18
2023-05-05T21:10:58.856Z,61.27
2023-05-05T21:13:27.967Z,61.49
2023-05-05T21:15:56.078Z,61.65
2023-05-05T21:18:25.805Z,61.53
2023-05-05T21:20:53.994Z,61.64
2023-05-05T21:23:22.104Z,61.84
2023-05-05T21:25:50.293Z,61.94
2023-05-05T21:28:18.435Z,62.33
2023-05-05T21:30:54.736Z,62.24
2023-05-05T21:33:28.072Z,62.54
2023-05-05T21:35:56.186Z,62.89
2023-05-05T21:38:24.311Z,62.80
2023-05-05T21:40:58.838Z,62.90
2023-05-05T21:43:28.851Z,63.05
2023-05-05T21:46:02.168Z,62.93
2023-05-05T21:48:33.793Z,63.09
2023-05-05T21:51:01.978Z,62.98
2023-05-05T21:53:30.070Z,63.47
2023-05-05T21:55:58.214Z,63.56
2023-05-05T21:58:26.427Z,63.71
2023-05-05T22:00:54.619Z,63.71
2023-05-05T22:03:23.126Z,63.98
2023-05-05T22:05:52.030Z,64.07
2023-05-05T22:08:20.629Z,64.01
2023-05-05T22:10:48.773Z,64.21
2023-05-05T22:13:17.048Z,64.43
2023-05-05T22:15:47.279Z,64.28
2023-05-05T22:18:15.967Z,64.31
2023-05-05T22:20:44.135Z,64.50
2023-05-05T22:23:14.081Z,64.54
2023-05-05T22:25:42.405Z,64.62
2023-05-05T22:28:11.588Z,64.75
2023-05-05T22:30:39.916Z,64.77
2023-05-05T22:33:08.369Z,64.89
2023-05-05T22:35:37.843Z,65.07
2023-05-05T22:38:06.606Z,65.10
2023-05-05T22:40:35.858Z,65.07
2023-05-05T22:43:04.015Z,65.13
2023-05-05T22:45:32.339Z,65.29
2023-05-05T22:48:00.869Z,65.23
2023-05-05T22:50:29.262Z,65.26
2023-05-05T22:52:57.382Z,65.38
2023-05-05T22:55:26.070Z,65.53
2023-05-05T22:57:54.182Z,65.61
2023-05-05T23:00:22.403Z,65.68
2023-05-05T23:02:50.786Z,65.70
2023-05-05T23:05:18.944Z,65.87
2023-05-05T23:07:47.061Z,65.90
2023-05-05T23:10:15.275Z,65.85
2023-05-05T23:12:43.443Z,65.81
2023-05-05T23:15:11.969Z,65.75
2023-05-05T23:17:40.681Z,65.83
2023-05-05T23:20:12.133Z,65.75
2023-05-05T23:22:40.294Z,65.83
2023-05-05T23:25:09.211Z,65.84
2023-05-05T23:27:39.204Z,65.77
2023-05-05T23:30:09.126Z,65.86
2023-05-05T23:32:37.387Z,65.94
2023-05-05T23:35:06.126Z,65.86
2023-05-05T23:37:34.300Z,65.94
2023-05-05T23:40:02.539Z,65.85
2023-05-05T23:42:30.653Z,65.98
2023-05-05T23:44:58.792Z,66.04
2023-05-05T23:47:27.025Z,65.92
2023-05-05T23:49:55.333Z,66.08
2023-05-05T23:52:23.506Z,65.96
2023-05-05T23:54:51.617Z,66.12
2023-05-05T23:57:19.727Z,65.96
2023-05-05T23:59:47.835Z,65.94
